Terminal Aerodrome Forecast
Issued by NWS Mt. Holly, NJ

Current Version | Previous Version | Text Only | Print | Product List | Glossary On
Versions: 1 2 3 4 5 6 7 8 9 10 11 12 13 14 15 16 17 18 19 20 21 22 23 24 25 26
000
FTUS41 KPHI 110500
TAFPHL
TAF
KPHL 110537Z 1106/1212 VRB03KT P6SM SCT025 BKN120
      TEMPO 1106/1108 -SHRA BKN025 OVC120
     FM110800 03008KT P6SM BKN200
     FM111400 06008KT P6SM FEW045
     FM111900 09008KT P6SM SCT045
     FM112200 15008KT P6SM SCT045
     FM120400 VRB03KT P6SM SCT250=

USA.gov is the U.S. government's official web portal to all federal, state and local government web resources and services.